Accueil
METAR-TAF:

METAR-TAF

Aéroports :

Dublin, Géorgie, États-Unis

latitude: 32-33-52N, longitude: 082-59-07W, altitude: 94 m

Observation

Le bulletin a été fait il y a 1 heure et 15 minutes, à 10:55 UTC
Vent calme
Température 11°C
Humidité 94%
Pression 1015 hPa
Visibilité: 16.1 km
Ciel clair

METAR: KDBN 041055Z AUTO 00000KT 10SM CLR 11/10 A2996 RMK AO2

Heure: 08:10 (12:10 UTC)


TAF: absent

Observations et prévisions météorologiques de plus de 4000 aéroports (messages METAR et TAF).

Les stations disponibles sont représentées par des disques jaunes et rouges sur la carte.

Passer la souris dessus pour voir le nom de la station.

Cliquer dessus pour voir les observations et prévisions météorologiques.

Pour changer de carte: cliquez sur les boutons verts avec une croix noire pour zoomer, sur le bouton vert avec un tiret pour effectuer un zoom arrière, ou sur les flèches vertes pour les cartes adjacentes.


METAR-TAF: